sensor_id;sensor_type;location;lat;lon;timestamp;pressure;altitude;pressure_sealevel;temperature;humidity
21203;BME280;10759;51.982;9.232;2024-02-26T00:02:25;98961.91;;;0.80;100.00
21203;BME280;10759;51.982;9.232;2024-02-26T00:04:54;98963.50;;;0.87;100.00
21203;BME280;10759;51.982;9.232;2024-02-26T00:07:22;98954.84;;;0.80;100.00
21203;BME280;10759;51.982;9.232;2024-02-26T00:09:50;98959.00;;;0.92;100.00
21203;BME280;10759;51.982;9.232;2024-02-26T00:12:18;98953.47;;;1.03;100.00
21203;BME280;10759;51.982;9.232;2024-02-26T00:14:47;98946.72;;;0.91;100.00
21203;BME280;10759;51.982;9.232;2024-02-26T00:17:16;98955.53;;;0.89;100.00
21203;BME280;10759;51.982;9.232;2024-02-26T00:19:44;98944.31;;;0.80;100.00
21203;BME280;10759;51.982;9.232;2024-02-26T00:22:14;98957.56;;;0.76;100.00
21203;BME280;10759;51.982;9.232;2024-02-26T00:24:42;98955.19;;;0.63;100.00
21203;BME280;10759;51.982;9.232;2024-02-26T00:27:10;98952.69;;;0.57;100.00
21203;BME280;10759;51.982;9.232;2024-02-26T00:29:38;98938.66;;;0.55;100.00
21203;BME280;10759;51.982;9.232;2024-02-26T00:32:06;98953.53;;;0.59;100.00
21203;BME280;10759;51.982;9.232;2024-02-26T00:34:34;98942.31;;;0.48;100.00
21203;BME280;10759;51.982;9.232;2024-02-26T00:37:03;98950.25;;;0.47;100.00
21203;BME280;10759;51.982;9.232;2024-02-26T00:39:32;98941.81;;;0.29;100.00
21203;BME280;10759;51.982;9.232;2024-02-26T00:42:00;98952.25;;;0.34;100.00
21203;BME280;10759;51.982;9.232;2024-02-26T00:44:29;98938.31;;;0.29;100.00
21203;BME280;10759;51.982;9.232;2024-02-26T00:46:57;98948.47;;;0.49;100.00
21203;BME280;10759;51.982;9.232;2024-02-26T00:49:25;98943.19;;;0.49;100.00
21203;BME280;10759;51.982;9.232;2024-02-26T00:51:53;98916.22;;;0.34;100.00
21203;BME280;10759;51.982;9.232;2024-02-26T00:54:22;98950.84;;;0.62;100.00
21203;BME280;10759;51.982;9.232;2024-02-26T00:56:53;98859.34;;;0.24;100.00
21203;BME280;10759;51.982;9.232;2024-02-26T00:59:21;98952.63;;;0.60;100.00
21203;BME280;10759;51.982;9.232;2024-02-26T01:01:49;98957.22;;;0.51;100.00
21203;BME280;10759;51.982;9.232;2024-02-26T01:04:28;98947.66;;;0.45;100.00
21203;BME280;10759;51.982;9.232;2024-02-26T01:06:56;98944.06;;;0.49;100.00
21203;BME280;10759;51.982;9.232;2024-02-26T01:09:25;98909.47;;;0.23;100.00
21203;BME280;10759;51.982;9.232;2024-02-26T01:11:57;98925.97;;;0.31;100.00
21203;BME280;10759;51.982;9.232;2024-02-26T01:14:26;98943.19;;;0.49;100.00
21203;BME280;10759;51.982;9.232;2024-02-26T01:16:54;98927.47;;;0.44;100.00
21203;BME280;10759;51.982;9.232;2024-02-26T01:19:22;98934.50;;;0.43;100.00
21203;BME280;10759;51.982;9.232;2024-02-26T01:21:50;98932.78;;;0.42;100.00
21203;BME280;10759;51.982;9.232;2024-02-26T01:24:18;98935.34;;;0.46;100.00
21203;BME280;10759;51.982;9.232;2024-02-26T01:26:46;98917.41;;;0.19;100.00
21203;BME280;10759;51.982;9.232;2024-02-26T01:29:15;98872.91;;;0.04;100.00
21203;BME280;10759;51.982;9.232;2024-02-26T01:31:43;98922.19;;;0.46;100.00
21203;BME280;10759;51.982;9.232;2024-02-26T01:34:11;98877.63;;;0.33;100.00
21203;BME280;10759;51.982;9.232;2024-02-26T01:36:40;98926.31;;;0.99;100.00
21203;BME280;10759;51.982;9.232;2024-02-26T01:39:09;98903.97;;;0.77;100.00
21203;BME280;10759;51.982;9.232;2024-02-26T01:41:39;98935.53;;;0.80;100.00
21203;BME280;10759;51.982;9.232;2024-02-26T01:44:08;98933.81;;;0.77;100.00
21203;BME280;10759;51.982;9.232;2024-02-26T01:46:39;98928.81;;;0.65;100.00
21203;BME280;10759;51.982;9.232;2024-02-26T01:49:08;98929.66;;;0.66;100.00
21203;BME280;10759;51.982;9.232;2024-02-26T01:51:39;98902.53;;;0.62;100.00
21203;BME280;10759;51.982;9.232;2024-02-26T01:54:09;98918.94;;;0.75;100.00
21203;BME280;10759;51.982;9.232;2024-02-26T01:56:38;98899.03;;;0.60;100.00
21203;BME280;10759;51.982;9.232;2024-02-26T01:59:08;98894.03;;;0.46;100.00
21203;BME280;10759;51.982;9.232;2024-02-26T02:01:36;98908.31;;;0.34;100.00
21203;BME280;10759;51.982;9.232;2024-02-26T02:04:08;98916.22;;;0.36;100.00
21203;BME280;10759;51.982;9.232;2024-02-26T02:06:36;98908.13;;;0.45;100.00
21203;BME280;10759;51.982;9.232;2024-02-26T02:09:05;98907.34;;;0.40;100.00
21203;BME280;10759;51.982;9.232;2024-02-26T02:11:34;98925.91;;;0.34;100.00
21203;BME280;10759;51.982;9.232;2024-02-26T02:14:02;98918.69;;;0.45;100.00
21203;BME280;10759;51.982;9.232;2024-02-26T02:16:31;98915.06;;;0.49;100.00
21203;BME280;10759;51.982;9.232;2024-02-26T02:18:59;98916.84;;;0.49;100.00
21203;BME280;10759;51.982;9.232;2024-02-26T02:21:28;98915.88;;;0.53;100.00
21203;BME280;10759;51.982;9.232;2024-02-26T02:23:56;98918.94;;;0.75;100.00
21203;BME280;10759;51.982;9.232;2024-02-26T02:26:24;98906.53;;;0.80;100.00
21203;BME280;10759;51.982;9.232;2024-02-26T02:28:53;98922.00;;;0.95;100.00
21203;BME280;10759;51.982;9.232;2024-02-26T02:31:21;98917.44;;;1.03;100.00
21203;BME280;10759;51.982;9.232;2024-02-26T02:33:49;98921.97;;;0.97;100.00
21203;BME280;10759;51.982;9.232;2024-02-26T02:36:17;98928.59;;;1.15;100.00
21203;BME280;10759;51.982;9.232;2024-02-26T02:38:50;98924.34;;;1.09;100.00
21203;BME280;10759;51.982;9.232;2024-02-26T02:41:19;98930.56;;;1.06;100.00
21203;BME280;10759;51.982;9.232;2024-02-26T02:43:47;98928.75;;;1.09;100.00
21203;BME280;10759;51.982;9.232;2024-02-26T02:46:15;98920.13;;;1.00;100.00
21203;BME280;10759;51.982;9.232;2024-02-26T02:48:43;98931.63;;;0.98;100.00
21203;BME280;10759;51.982;9.232;2024-02-26T02:51:12;98935.06;;;1.01;100.00
21203;BME280;10759;51.982;9.232;2024-02-26T02:53:40;98921.88;;;1.01;100.00
21203;BME280;10759;51.982;9.232;2024-02-26T02:56:09;98928.53;;;1.18;100.00
21203;BME280;10759;51.982;9.232;2024-02-26T02:58:37;98933.84;;;1.16;100.00
21203;BME280;10759;51.982;9.232;2024-02-26T03:01:05;98939.84;;;1.23;100.00
21203;BME280;10759;51.982;9.232;2024-02-26T03:03:33;98935.59;;;1.17;100.00
21203;BME280;10759;51.982;9.232;2024-02-26T03:06:03;98931.88;;;1.26;100.00
21203;BME280;10759;51.982;9.232;2024-02-26T03:08:31;98937.28;;;1.20;100.00
21203;BME280;10759;51.982;9.232;2024-02-26T03:10:59;98925.78;;;1.22;100.00
21203;BME280;10759;51.982;9.232;2024-02-26T03:13:29;98928.69;;;1.12;100.00
21203;BME280;10759;51.982;9.232;2024-02-26T03:15:57;98925.28;;;1.06;100.00
21203;BME280;10759;51.982;9.232;2024-02-26T03:18:25;98911.69;;;0.84;100.00
21203;BME280;10759;51.982;9.232;2024-02-26T03:20:53;98921.94;;;0.98;100.00
21203;BME280;10759;51.982;9.232;2024-02-26T03:23:22;98915.72;;;1.01;100.00
21203;BME280;10759;51.982;9.232;2024-02-26T03:25:50;98924.19;;;1.15;100.00
21203;BME280;10759;51.982;9.232;2024-02-26T03:28:19;98929.44;;;1.17;100.00
21203;BME280;10759;51.982;9.232;2024-02-26T03:30:48;98931.91;;;1.23;100.00
21203;BME280;10759;51.982;9.232;2024-02-26T03:33:16;98917.09;;;1.17;100.00
21203;BME280;10759;51.982;9.232;2024-02-26T03:35:44;98936.91;;;1.35;100.00
21203;BME280;10759;51.982;9.232;2024-02-26T03:38:13;98935.13;;;1.37;100.00
21203;BME280;10759;51.982;9.232;2024-02-26T03:40:41;98937.53;;;1.48;100.00
21203;BME280;10759;51.982;9.232;2024-02-26T03:43:09;98940.97;;;1.50;100.00
21203;BME280;10759;51.982;9.232;2024-02-26T03:45:37;98936.56;;;1.50;100.00
21203;BME280;10759;51.982;9.232;2024-02-26T03:48:07;98941.84;;;1.50;100.00
21203;BME280;10759;51.982;9.232;2024-02-26T03:50:35;98942.81;;;1.46;100.00
21203;BME280;10759;51.982;9.232;2024-02-26T03:53:03;98938.38;;;1.48;100.00
21203;BME280;10759;51.982;9.232;2024-02-26T03:55:31;98948.94;;;1.48;100.00
21203;BME280;10759;51.982;9.232;2024-02-26T03:57:59;98935.28;;;1.67;100.00
21203;BME280;10759;51.982;9.232;2024-02-26T04:00:27;98944.59;;;1.82;100.00
21203;BME280;10759;51.982;9.232;2024-02-26T04:02:57;98945.44;;;1.84;100.00
21203;BME280;10759;51.982;9.232;2024-02-26T04:05:26;98927.84;;;1.83;100.00
21203;BME280;10759;51.982;9.232;2024-02-26T04:07:54;98938.00;;;2.00;100.00
21203;BME280;10759;51.982;9.232;2024-02-26T04:10:23;98913.25;;;1.68;100.00
21203;BME280;10759;51.982;9.232;2024-02-26T04:12:51;98947.47;;;1.73;100.00
21203;BME280;10759;51.982;9.232;2024-02-26T04:15:19;98936.31;;;1.61;100.00
21203;BME280;10759;51.982;9.232;2024-02-26T04:17:47;98871.28;;;1.21;100.00
21203;BME280;10759;51.982;9.232;2024-02-26T04:20:15;98942.53;;;1.59;100.00
21203;BME280;10759;51.982;9.232;2024-02-26T04:22:45;98876.13;;;1.02;100.00
21203;BME280;10759;51.982;9.232;2024-02-26T04:25:13;98948.78;;;1.55;100.00
21203;BME280;10759;51.982;9.232;2024-02-26T04:27:41;98934.81;;;1.49;100.00
21203;BME280;10759;51.982;9.232;2024-02-26T04:30:10;98954.13;;;1.52;100.00
21203;BME280;10759;51.982;9.232;2024-02-26T04:32:38;98942.81;;;1.48;100.00
21203;BME280;10759;51.982;9.232;2024-02-26T04:35:07;98949.69;;;1.55;100.00
21203;BME280;10759;51.982;9.232;2024-02-26T04:37:35;98946.13;;;1.56;100.00
21203;BME280;10759;51.982;9.232;2024-02-26T04:40:06;98947.25;;;1.46;100.00
21203;BME280;10759;51.982;9.232;2024-02-26T04:42:34;98950.63;;;1.51;100.00
21203;BME280;10759;51.982;9.232;2024-02-26T04:45:03;98957.53;;;1.57;100.00
21203;BME280;10759;51.982;9.232;2024-02-26T04:47:31;98957.47;;;1.60;100.00
21203;BME280;10759;51.982;9.232;2024-02-26T04:49:59;98954.72;;;1.64;100.00
21203;BME280;10759;51.982;9.232;2024-02-26T04:52:29;98953.56;;;1.75;100.00
21203;BME280;10759;51.982;9.232;2024-02-26T04:54:57;98883.19;;;1.38;100.00
21203;BME280;10759;51.982;9.232;2024-02-26T04:57:28;98957.16;;;1.72;100.00
21203;BME280;10759;51.982;9.232;2024-02-26T04:59:56;98958.81;;;1.76;100.00
21203;BME280;10759;51.982;9.232;2024-02-26T05:02:24;98960.50;;;1.80;100.00
21203;BME280;10759;51.982;9.232;2024-02-26T05:04:52;98961.19;;;1.87;100.00
21203;BME280;10759;51.982;9.232;2024-02-26T05:07:20;98964.72;;;2.22;100.00
21203;BME280;10759;51.982;9.232;2024-02-26T05:09:48;98949.34;;;2.03;100.00
21203;BME280;10759;51.982;9.232;2024-02-26T05:12:19;98963.06;;;2.18;100.00
21203;BME280;10759;51.982;9.232;2024-02-26T05:14:49;98957.78;;;2.18;100.00
21203;BME280;10759;51.982;9.232;2024-02-26T05:17:17;98942.38;;;1.99;100.00
21203;BME280;10759;51.982;9.232;2024-02-26T05:19:45;98934.44;;;2.01;100.00
21203;BME280;10759;51.982;9.232;2024-02-26T05:22:13;98948.41;;;2.04;100.00
21203;BME280;10759;51.982;9.232;2024-02-26T05:24:42;98973.66;;;2.16;100.00
21203;BME280;10759;51.982;9.232;2024-02-26T05:27:10;98986.34;;;2.36;100.00
21203;BME280;10759;51.982;9.232;2024-02-26T05:29:39;98979.47;;;2.30;100.00
21203;BME280;10759;51.982;9.232;2024-02-26T05:32:08;98982.09;;;2.30;100.00
21203;BME280;10759;51.982;9.232;2024-02-26T05:34:37;98985.34;;;2.42;100.00
21203;BME280;10759;51.982;9.232;2024-02-26T05:37:05;98989.41;;;2.53;100.00
21203;BME280;10759;51.982;9.232;2024-02-26T05:39:34;98993.84;;;2.53;100.00
21203;BME280;10759;51.982;9.232;2024-02-26T05:42:03;98980.88;;;2.44;100.00
21203;BME280;10759;51.982;9.232;2024-02-26T05:44:31;98937.13;;;2.32;100.00
21203;BME280;10759;51.982;9.232;2024-02-26T05:46:59;98985.91;;;2.53;100.00
21203;BME280;10759;51.982;9.232;2024-02-26T05:49:30;98996.22;;;2.62;100.00
21203;BME280;10759;51.982;9.232;2024-02-26T05:51:59;98949.88;;;2.49;100.00
21203;BME280;10759;51.982;9.232;2024-02-26T05:54:27;98992.47;;;2.71;100.00
21203;BME280;10759;51.982;9.232;2024-02-26T05:56:55;99000.53;;;2.66;100.00
21203;BME280;10759;51.982;9.232;2024-02-26T05:59:25;98925.09;;;2.20;100.00
21203;BME280;10759;51.982;9.232;2024-02-26T06:01:53;98999.22;;;2.50;100.00
21203;BME280;10759;51.982;9.232;2024-02-26T06:04:21;99004.06;;;2.65;100.00
21203;BME280;10759;51.982;9.232;2024-02-26T06:06:51;99010.81;;;2.77;100.00
21203;BME280;10759;51.982;9.232;2024-02-26T06:09:19;99006.47;;;2.74;100.00
21203;BME280;10759;51.982;9.232;2024-02-26T06:11:47;99014.41;;;2.74;100.00
21203;BME280;10759;51.982;9.232;2024-02-26T06:14:15;98982.06;;;2.65;100.00
21203;BME280;10759;51.982;9.232;2024-02-26T06:16:44;99028.06;;;2.90;100.00
21203;BME280;10759;51.982;9.232;2024-02-26T06:19:12;99026.38;;;2.88;100.00
21203;BME280;10759;51.982;9.232;2024-02-26T06:21:41;99028.97;;;2.89;100.00
21203;BME280;10759;51.982;9.232;2024-02-26T06:24:10;99023.44;;;2.98;100.00
21203;BME280;10759;51.982;9.232;2024-02-26T06:26:38;99026.19;;;2.95;100.00
21203;BME280;10759;51.982;9.232;2024-02-26T06:29:06;99015.38;;;3.03;100.00
21203;BME280;10759;51.982;9.232;2024-02-26T06:31:38;99038.31;;;3.32;100.00
21203;BME280;10759;51.982;9.232;2024-02-26T06:34:06;99037.53;;;3.30;100.00
21203;BME280;10759;51.982;9.232;2024-02-26T06:36:34;99040.22;;;3.27;100.00
21203;BME280;10759;51.982;9.232;2024-02-26T06:39:04;99047.41;;;3.23;100.00
21203;BME280;10759;51.982;9.232;2024-02-26T06:41:34;99047.50;;;3.20;100.00
21203;BME280;10759;51.982;9.232;2024-02-26T06:44:03;99032.63;;;3.16;100.00
21203;BME280;10759;51.982;9.232;2024-02-26T06:46:31;99024.75;;;2.84;100.00
21203;BME280;10759;51.982;9.232;2024-02-26T06:48:59;99046.50;;;3.25;100.00
21203;BME280;10759;51.982;9.232;2024-02-26T06:51:27;99044.56;;;3.30;100.00
21203;BME280;10759;51.982;9.232;2024-02-26T06:53:55;99050.06;;;3.23;100.00
21203;BME280;10759;51.982;9.232;2024-02-26T06:56:23;99060.47;;;3.30;100.00
21203;BME280;10759;51.982;9.232;2024-02-26T06:58:53;99048.34;;;3.22;100.00
21203;BME280;10759;51.982;9.232;2024-02-26T07:01:21;99063.69;;;3.39;100.00
21203;BME280;10759;51.982;9.232;2024-02-26T07:03:49;99065.09;;;3.53;100.00
21203;BME280;10759;51.982;9.232;2024-02-26T07:06:17;99064.97;;;3.57;100.00
21203;BME280;10759;51.982;9.232;2024-02-26T07:08:45;99056.81;;;3.63;100.00
21203;BME280;10759;51.982;9.232;2024-02-26T07:11:13;99007.88;;;3.17;100.00
21203;BME280;10759;51.982;9.232;2024-02-26T07:13:41;99067.88;;;3.48;100.00
21203;BME280;10759;51.982;9.232;2024-02-26T07:16:10;99062.72;;;3.43;100.00
21203;BME280;10759;51.982;9.232;2024-02-26T07:18:40;99067.88;;;3.48;100.00
21203;BME280;10759;51.982;9.232;2024-02-26T07:21:08;99066.19;;;3.46;100.00
21203;BME280;10759;51.982;9.232;2024-02-26T07:23:36;99053.19;;;3.38;100.00
21203;BME280;10759;51.982;9.232;2024-02-26T07:26:04;99052.75;;;3.52;100.00
21203;BME280;10759;51.982;9.232;2024-02-26T07:28:32;99054.44;;;3.54;100.00
21203;BME280;10759;51.982;9.232;2024-02-26T07:31:00;99057.16;;;3.53;100.00
21203;BME280;10759;51.982;9.232;2024-02-26T07:33:29;99055.81;;;3.68;100.00
21203;BME280;10759;51.982;9.232;2024-02-26T07:35:58;99044.81;;;3.80;100.00
21203;BME280;10759;51.982;9.232;2024-02-26T07:38:26;99042.69;;;3.91;100.00
21203;BME280;10759;51.982;9.232;2024-02-26T07:41:08;99043.38;;;3.98;100.00
21203;BME280;10759;51.982;9.232;2024-02-26T07:43:37;99048.47;;;4.04;100.00
21203;BME280;10759;51.982;9.232;2024-02-26T07:46:05;99048.84;;;4.20;100.00
21203;BME280;10759;51.982;9.232;2024-02-26T07:48:34;99038.50;;;4.39;100.00
21203;BME280;10759;51.982;9.232;2024-02-26T07:51:03;99039.78;;;4.52;100.00
21203;BME280;10759;51.982;9.232;2024-02-26T07:53:32;99036.38;;;4.48;100.00
21203;BME280;10759;51.982;9.232;2024-02-26T07:56:00;99022.91;;;4.55;100.00
21203;BME280;10759;51.982;9.232;2024-02-26T07:58:30;99030.69;;;4.59;100.00
21203;BME280;10759;51.982;9.232;2024-02-26T08:00:58;99035.03;;;4.62;100.00
21203;BME280;10759;51.982;9.232;2024-02-26T08:03:26;99039.78;;;4.77;100.00
21203;BME280;10759;51.982;9.232;2024-02-26T08:05:55;99030.53;;;4.64;100.00
21203;BME280;10759;51.982;9.232;2024-02-26T08:08:23;99047.75;;;4.77;100.00
21203;BME280;10759;51.982;9.232;2024-02-26T08:10:51;99047.41;;;4.88;100.00
21203;BME280;10759;51.982;9.232;2024-02-26T08:13:19;99050.78;;;4.91;100.00
21203;BME280;10759;51.982;9.232;2024-02-26T08:15:47;99054.22;;;4.95;100.00
21203;BME280;10759;51.982;9.232;2024-02-26T08:18:15;99070.22;;;4.92;100.00
21203;BME280;10759;51.982;9.232;2024-02-26T08:20:44;99053.81;;;5.06;100.00
21203;BME280;10759;51.982;9.232;2024-02-26T08:23:13;99053.41;;;5.16;100.00
21203;BME280;10759;51.982;9.232;2024-02-26T08:25:41;99050.66;;;5.20;100.00
21203;BME280;10759;51.982;9.232;2024-02-26T08:28:09;99037.06;;;5.04;100.00
21203;BME280;10759;51.982;9.232;2024-02-26T08:30:39;99055.22;;;5.16;100.00
21203;BME280;10759;51.982;9.232;2024-02-26T08:33:07;99078.66;;;5.28;100.00
21203;BME280;10759;51.982;9.232;2024-02-26T08:35:36;99076.94;;;5.27;100.00
21203;BME280;10759;51.982;9.232;2024-02-26T08:38:04;99070.97;;;5.21;100.00
21203;BME280;10759;51.982;9.232;2024-02-26T08:40:34;99092.63;;;5.33;100.00
21203;BME280;10759;51.982;9.232;2024-02-26T08:43:02;99088.81;;;5.41;100.00
21203;BME280;10759;51.982;9.232;2024-02-26T08:45:30;99099.47;;;5.41;100.00
21203;BME280;10759;51.982;9.232;2024-02-26T08:47:58;99096.63;;;5.45;100.00
21203;BME280;10759;51.982;9.232;2024-02-26T08:50:27;99097.50;;;5.46;100.00
21203;BME280;10759;51.982;9.232;2024-02-26T08:52:55;99098.31;;;5.48;100.00
21203;BME280;10759;51.982;9.232;2024-02-26T08:55:23;99033.25;;;5.11;100.00
21203;BME280;10759;51.982;9.232;2024-02-26T08:57:55;99101.78;;;5.50;100.00
21203;BME280;10759;51.982;9.232;2024-02-26T09:00:23;99096.91;;;5.61;100.00
21203;BME280;10759;51.982;9.232;2024-02-26T09:02:51;99077.09;;;5.46;100.00
21203;BME280;10759;51.982;9.232;2024-02-26T09:05:21;99077.75;;;5.53;100.00
21203;BME280;10759;51.982;9.232;2024-02-26T09:07:49;99103.03;;;5.63;100.00
21203;BME280;10759;51.982;9.232;2024-02-26T09:10:18;99098.53;;;5.65;100.00
21203;BME280;10759;51.982;9.232;2024-02-26T09:12:46;99107.97;;;5.74;100.00
21203;BME280;10759;51.982;9.232;2024-02-26T09:15:16;99108.69;;;5.77;100.00
21203;BME280;10759;51.982;9.232;2024-02-26T09:17:44;99109.47;;;5.81;100.00
21203;BME280;10759;51.982;9.232;2024-02-26T09:20:12;99112.63;;;5.91;100.00
21203;BME280;10759;51.982;9.232;2024-02-26T09:22:41;99110.22;;;6.08;100.00
21203;BME280;10759;51.982;9.232;2024-02-26T09:25:09;99111.78;;;6.12;100.00
21203;BME280;10759;51.982;9.232;2024-02-26T09:27:37;99122.56;;;6.09;100.00
21203;BME280;10759;51.982;9.232;2024-02-26T09:30:10;99113.53;;;6.13;100.00
21203;BME280;10759;51.982;9.232;2024-02-26T09:32:40;99113.28;;;6.19;100.00
21203;BME280;10759;51.982;9.232;2024-02-26T09:35:08;99055.19;;;5.87;100.00
21203;BME280;10759;51.982;9.232;2024-02-26T09:37:36;99095.84;;;6.12;100.00
21203;BME280;10759;51.982;9.232;2024-02-26T09:40:05;99122.13;;;6.20;100.00
21203;BME280;10759;51.982;9.232;2024-02-26T09:42:34;99124.25;;;6.34;100.00
21203;BME280;10759;51.982;9.232;2024-02-26T09:45:06;99136.25;;;6.44;100.00
21203;BME280;10759;51.982;9.232;2024-02-26T09:47:40;99141.38;;;6.27;100.00
21203;BME280;10759;51.982;9.232;2024-02-26T09:50:11;99143.84;;;6.31;100.00
21203;BME280;10759;51.982;9.232;2024-02-26T09:52:41;99149.13;;;6.33;100.00
21203;BME280;10759;51.982;9.232;2024-02-26T09:55:10;99146.47;;;6.33;100.00
21203;BME280;10759;51.982;9.232;2024-02-26T09:57:41;99145.53;;;6.34;100.00
21203;BME280;10759;51.982;9.232;2024-02-26T10:00:16;99126.41;;;6.24;100.00
21203;BME280;10759;51.982;9.232;2024-02-26T10:02:47;99148.75;;;6.42;100.00
21203;BME280;10759;51.982;9.232;2024-02-26T10:05:16;99162.97;;;6.41;100.00
21203;BME280;10759;51.982;9.232;2024-02-26T10:07:45;99159.88;;;6.52;100.00
21203;BME280;10759;51.982;9.232;2024-02-26T10:10:14;99156.78;;;6.62;100.00
21203;BME280;10759;51.982;9.232;2024-02-26T10:12:42;99167.69;;;6.56;100.00
21203;BME280;10759;51.982;9.232;2024-02-26T10:15:10;99164.47;;;6.48;100.00
21203;BME280;10759;51.982;9.232;2024-02-26T10:17:38;99163.84;;;6.63;100.00
21203;BME280;10759;51.982;9.232;2024-02-26T10:20:13;99162.97;;;6.63;100.00
21203;BME280;10759;51.982;9.232;2024-02-26T10:22:43;99152.34;;;6.63;100.00
21203;BME280;10759;51.982;9.232;2024-02-26T10:25:11;99138.56;;;6.74;100.00
21203;BME280;10759;51.982;9.232;2024-02-26T10:27:40;99165.81;;;6.80;100.00
21203;BME280;10759;51.982;9.232;2024-02-26T10:30:19;99174.00;;;6.96;100.00
21203;BME280;10759;51.982;9.232;2024-02-26T10:32:49;99172.75;;;7.05;100.00
21203;BME280;10759;51.982;9.232;2024-02-26T10:35:19;99176.09;;;7.10;100.00
21203;BME280;10759;51.982;9.232;2024-02-26T10:37:49;99187.03;;;7.24;100.00
21203;BME280;10759;51.982;9.232;2024-02-26T10:40:17;99186.56;;;7.15;99.53
21203;BME280;10759;51.982;9.232;2024-02-26T10:42:45;99191.22;;;7.09;100.00
21203;BME280;10759;51.982;9.232;2024-02-26T10:45:13;99189.97;;;7.39;100.00
21203;BME280;10759;51.982;9.232;2024-02-26T10:47:42;99168.81;;;7.14;100.00
21203;BME280;10759;51.982;9.232;2024-02-26T10:50:12;99182.56;;;7.25;100.00
21203;BME280;10759;51.982;9.232;2024-02-26T10:52:42;99197.28;;;7.54;100.00
21203;BME280;10759;51.982;9.232;2024-02-26T10:55:15;99194.03;;;7.27;100.00
21203;BME280;10759;51.982;9.232;2024-02-26T10:57:47;99203.22;;;7.40;100.00
21203;BME280;10759;51.982;9.232;2024-02-26T11:00:16;99202.00;;;7.47;100.00
21203;BME280;10759;51.982;9.232;2024-02-26T11:02:45;99200.16;;;7.29;100.00
21203;BME280;10759;51.982;9.232;2024-02-26T11:05:14;99214.53;;;7.66;100.00
21203;BME280;10759;51.982;9.232;2024-02-26T11:07:44;99233.06;;;7.69;100.00
21203;BME280;10759;51.982;9.232;2024-02-26T11:10:15;99223.06;;;7.74;98.96
21203;BME280;10759;51.982;9.232;2024-02-26T11:12:45;99230.00;;;7.78;99.88
21203;BME280;10759;51.982;9.232;2024-02-26T11:15:14;99230.34;;;7.50;98.85
21203;BME280;10759;51.982;9.232;2024-02-26T11:17:44;99204.97;;;7.41;99.80
21203;BME280;10759;51.982;9.232;2024-02-26T11:20:14;99236.41;;;7.53;99.51
21203;BME280;10759;51.982;9.232;2024-02-26T11:22:43;99209.88;;;7.50;99.36
21203;BME280;10759;51.982;9.232;2024-02-26T11:25:12;99228.34;;;7.76;97.54
21203;BME280;10759;51.982;9.232;2024-02-26T11:27:43;99232.13;;;7.70;96.81
21203;BME280;10759;51.982;9.232;2024-02-26T11:30:13;99214.28;;;7.51;96.42
21203;BME280;10759;51.982;9.232;2024-02-26T11:32:44;99239.06;;;7.53;96.22
21203;BME280;10759;51.982;9.232;2024-02-26T11:35:12;99237.34;;;7.73;96.10
21203;BME280;10759;51.982;9.232;2024-02-26T11:37:53;99228.22;;;7.58;95.22
21203;BME280;10759;51.982;9.232;2024-02-26T11:40:23;99229.66;;;7.65;96.09
21203;BME280;10759;51.982;9.232;2024-02-26T11:42:53;99207.47;;;7.65;94.39
21203;BME280;10759;51.982;9.232;2024-02-26T11:45:50;99243.06;;;7.64;93.44
21203;BME280;10759;51.982;9.232;2024-02-26T11:48:23;99219.59;;;7.72;93.97
21203;BME280;10759;51.982;9.232;2024-02-26T11:50:54;99235.94;;;8.04;92.31
21203;BME280;10759;51.982;9.232;2024-02-26T11:53:25;99209.94;;;7.69;92.31
21203;BME280;10759;51.982;9.232;2024-02-26T11:56:20;99232.47;;;7.83;93.07
21203;BME280;10759;51.982;9.232;2024-02-26T11:58:57;99181.19;;;7.76;92.19
21203;BME280;10759;51.982;9.232;2024-02-26T12:01:45;99224.38;;;7.84;91.69
21203;BME280;10759;51.982;9.232;2024-02-26T12:04:19;99232.47;;;8.02;92.60
21203;BME280;10759;51.982;9.232;2024-02-26T12:06:51;99217.13;;;7.88;91.13
21203;BME280;10759;51.982;9.232;2024-02-26T12:09:35;99226.13;;;7.65;91.53
21203;BME280;10759;51.982;9.232;2024-02-26T12:12:06;99224.47;;;7.62;91.09
21203;BME280;10759;51.982;9.232;2024-02-26T12:14:36;99235.03;;;7.84;91.45
21203;BME280;10759;51.982;9.232;2024-02-26T12:17:05;99248.88;;;7.92;90.05
21203;BME280;10759;51.982;9.232;2024-02-26T12:19:35;99246.25;;;7.72;90.66
21203;BME280;10759;51.982;9.232;2024-02-26T12:22:08;99244.00;;;7.83;91.35
21203;BME280;10759;51.982;9.232;2024-02-26T12:24:37;99221.69;;;7.84;90.38
21203;BME280;10759;51.982;9.232;2024-02-26T12:27:05;99234.38;;;8.18;90.78
21203;BME280;10759;51.982;9.232;2024-02-26T12:29:34;99170.28;;;7.62;90.78
21203;BME280;10759;51.982;9.232;2024-02-26T12:32:03;99231.00;;;8.15;88.84
21203;BME280;10759;51.982;9.232;2024-02-26T12:34:34;99222.91;;;7.77;89.03
21203;BME280;10759;51.982;9.232;2024-02-26T12:37:03;99232.00;;;7.73;89.96
21203;BME280;10759;51.982;9.232;2024-02-26T12:39:31;99234.94;;;7.67;91.14
21203;BME280;10759;51.982;9.232;2024-02-26T12:42:01;99232.00;;;7.73;91.16
21203;BME280;10759;51.982;9.232;2024-02-26T12:44:31;99235.03;;;7.84;90.85
21203;BME280;10759;51.982;9.232;2024-02-26T12:47:02;99246.75;;;8.01;91.85
21203;BME280;10759;51.982;9.232;2024-02-26T12:49:31;99249.03;;;7.89;91.67
21203;BME280;10759;51.982;9.232;2024-02-26T12:51:59;99252.09;;;8.01;91.49
21203;BME280;10759;51.982;9.232;2024-02-26T12:54:29;99239.22;;;7.90;90.93
21203;BME280;10759;51.982;9.232;2024-02-26T12:57:02;99251.16;;;8.02;91.49
21203;BME280;10759;51.982;9.232;2024-02-26T12:59:31;99229.03;;;7.79;90.91
21203;BME280;10759;51.982;9.232;2024-02-26T13:02:00;99238.06;;;8.16;91.50
21203;BME280;10759;51.982;9.232;2024-02-26T13:04:33;99250.31;;;8.20;90.85
21203;BME280;10759;51.982;9.232;2024-02-26T13:07:03;99254.56;;;8.05;89.82
21203;BME280;10759;51.982;9.232;2024-02-26T13:09:32;99256.84;;;7.94;90.63
21203;BME280;10759;51.982;9.232;2024-02-26T13:12:06;99256.84;;;7.94;90.73
21203;BME280;10759;51.982;9.232;2024-02-26T13:14:35;99255.81;;;7.96;90.56